EmailTwitter


Observations de surface / Québec / LFBO

Régions: Québec | Canada | États-Unis | Europe | France | UK | Elsewhere
Station
Affichage
Infos & localisation pour LFBO | Aide pour décoder les METARs

Observations prises le 2017-02-24 à 10H00 UTC à TOULOUSE/BLAGNAC, FR (LFBO)

Etat du ciel: partiellement nuageux.

Température: 10.0 Celsius

Point de rosée: 5.0 Celsius

Humidité relative: 71%

Facteur vent: 7.

Vents: Nord-ouest à 22 km/h ou 12 noeuds.

Pression au niveau moyen de la mer: 101.90 kilopascals.

Visibilité horizontale: 6.21 milles terrestres ou 9.94 kilomètres.

Hauteur du plafond: 549 mètres ( 1800 pieds ).

Observation METAR:

LFBO 241000Z AUTO 30012KT 270V330 9999 BKN018 BKN024 10/05 Q1019 NOSIG=